Destinations Munich Airport

Munich Airport (EDDM / MUC)

Flights to Munich Airport

Flight number From ETE Dispatch
SPY-116 EHGG Groningen Airport Eelde 01:35

Flights from Munich Airport

Flight number To ETE Dispatch
SPY-117 EHGG Groningen Airport Eelde
About

Munich Airport facts

Munich Airport is located in Munich at an elevation of 453.2 meters or 1487 feet.

Currently, Speedy Airlines serves 2 flights to and from Munich Airport.

Detailed airport info

Route map

Weather

Current weather

METAR

METAR

Metar data retrieved Sunday, 21 July 2024 at 19:25 UTC

EDDM 211850Z AUTO VRB03KT 9999 TSRA FEW020 BKN///CB 19/16 Q1012 NOSIG
Wind Temperature Thunderstorm
3 kt 19c